SKBO/BOG METAR and TAF weather

Enter ICAO airport designator
Station Type Date Time Source
SKBO METAR 2021/08/05 05:00 UTC NOAA

SKBO 050500Z 00000KT 9999 FEW017 10/08 Q1031 NOSIG RMK A3046


Station Type Date Time Source
SKBO Decoded METAR 2021/08/05 05:00 UTC NOAA

Bogota / Eldorado, Colombia (SKBO) 04-43N 074-09W 2548M
Aug 05, 2021 - 01:00 AM EDT / 2021.08.05 0500 UTC
Wind: Calm:0
Visibility: greater than 7 mile(s):0
Sky conditions: mostly clear
Temperature: 50 F (10 C)
Dew Point: 46 F (8 C)
Relative Humidity: 87%
Pressure (altimeter): 30.45 in. Hg (1031 hPa)
ob: SKBO 050500Z 00000KT 9999 FEW017 10/08 Q1031 NOSIG RMK A3046
cycle: 5

Station Type Date Time Source
SKBO TAF 2021/08/05 06:42 UTC NOAA

TAF SKBO 050430Z 0506/0606 VRB02KT 9999 SCT023
BECMG 0510/0512 13010KT
BECMG 0600/0602 VRB02KT TX18/0519Z TN09/0510Z

Example: see airport list